DAOO/ORN METAR and TAF weather

Enter ICAO airport designator
Station Type Date Time Source
DAOO METAR 2020/02/29 02:30 UTC NOAA

DAOO 290230Z 21007KT CAVOK 11/09 Q1017


Station Type Date Time Source
DAOO Decoded METAR 2020/02/29 02:30 UTC NOAA

Oran / Es Senia, Algeria (DAOO) 35-38N 000-36W 90M
Feb 28, 2020 - 09:30 PM EST / 2020.02.29 0230 UTC
Wind: from the SSW (210 degrees) at 8 MPH (7 KT):0
Visibility: greater than 7 mile(s):0
Temperature: 51 F (11 C)
Dew Point: 48 F (9 C)
Relative Humidity: 87%
Pressure (altimeter): 30.03 in. Hg (1017 hPa)
ob: DAOO 290230Z 21007KT CAVOK 11/09 Q1017
cycle: 2

Station Type Date Time Source
DAOO TAF 2020/02/29 00:58 UTC NOAA

TAF DAOO 282300Z 2900/2924 VRB02KT CAVOK
BECMG 2905/2908 26010KT
TEMPO 2917/2924 24020G38KT

Example: see airport list